Terminal Aerodrome Forecast
Issued by NWS

Home | Current Version | Previous Version | Text Only | Print | Product List | Glossary On
Versions: 1 2 3 4 5 6 7 8 9 10 11 12 13
000
FTUS45 KGJT 101736
TAFDRO
TAF
KDRO 101736Z 1018/1118 09004KT P6SM SCT250
     FM102100 23006KT P6SM SCT250
     FM110200 04005KT P6SM SCT250
     FM110400 36005KT P6SM VCSH SCT060 BKN100
     FM111200 36006KT P6SM OVC035
     FM111500 10005KT P6SM OVC025=

USA.gov is the U.S. government's official web portal to all federal, state and local government web resources and services.